Time;durP1;ratioP1;P1;durP2;ratioP2;P2;SDS_P1;SDS_P2;PMS_P1;PMS_P2;Temp;Humidity;BMP_temperature;BMP_pressure;BME280_temperature;BME280_humidity;BME280_pressure;Samples;Min_cycle;Max_cycle;Signal;HPM_P1;HPM_P2
2023/02/23 00:01:51;;;;;;;67.90;35.80;;;;;;;-1.32;100.00;98078.45;106140;1253;71903;-77
2023/02/23 00:04:17;;;;;;;87.70;35.90;;;;;;;-1.33;100.00;98074.52;106156;1253;61362;-77
2023/02/23 00:06:44;;;;;;;86.40;37.50;;;;;;;-1.35;100.00;98080.16;106010;1253;138328;-78
2023/02/23 00:09:34;;;;;;;85.50;39.40;;;;;;;-1.37;100.00;98076.17;106175;1256;61405;-78
2023/02/23 00:12:02;;;;;;;76.40;35.80;;;;;;;-1.40;100.00;98074.54;106146;1254;71705;-76
2023/02/23 00:14:29;;;;;;;88.00;41.00;;;;;;;-1.43;100.00;98071.93;106090;1255;72601;-78
2023/02/23 00:16:56;;;;;;;95.60;39.10;;;;;;;-1.46;100.00;98073.67;106163;1254;61202;-77
2023/02/23 00:19:23;;;;;;;89.10;41.20;;;;;;;-1.46;100.00;98073.19;106265;1254;61100;-78
2023/02/23 00:21:50;;;;;;;84.90;36.20;;;;;;;-1.47;100.00;98070.68;106233;1254;73932;-78
2023/02/23 00:24:25;;;;;;;85.00;39.10;;;;;;;-1.48;100.00;98069.29;106101;1254;61994;-77
2023/02/23 00:26:52;;;;;;;77.10;37.20;;;;;;;-1.50;100.00;98066.10;106156;1253;71441;-78
2023/02/23 00:29:23;;;;;;;78.20;38.50;;;;;;;-1.51;100.00;98067.30;106227;1256;61224;-78
2023/02/23 00:31:50;;;;;;;78.80;40.50;;;;;;;-1.49;100.00;98063.33;106261;1253;61191;-76
2023/02/23 00:34:20;;;;;;;91.70;41.30;;;;;;;-1.49;100.00;98065.53;106166;1254;73161;-77
2023/02/23 00:36:53;;;;;;;85.50;39.60;;;;;;;-1.49;100.00;98061.16;106280;1254;70999;-78
2023/02/23 00:39:20;;;;;;;100.10;40.80;;;;;;;-1.50;100.00;98060.34;106223;1254;72559;-78
2023/02/23 00:41:48;;;;;;;91.10;41.90;;;;;;;-1.50;100.00;98063.65;106151;1253;61257;-77
2023/02/23 00:44:14;;;;;;;87.20;38.70;;;;;;;-1.51;100.00;98061.48;106184;1256;61215;-77
2023/02/23 00:46:42;;;;;;;78.70;38.30;;;;;;;-1.52;100.00;98061.65;106152;1254;74583;-77
2023/02/23 00:49:09;;;;;;;90.30;41.90;;;;;;;-1.54;100.00;98064.70;106141;1254;69933;-76
2023/02/23 00:51:36;;;;;;;86.70;42.30;;;;;;;-1.56;100.00;98063.34;106090;1254;72449;-77
2023/02/23 00:54:02;;;;;;;86.80;41.10;;;;;;;-1.56;100.00;98065.92;106149;1253;61170;-78
2023/02/23 00:56:29;;;;;;;103.60;43.40;;;;;;;-1.58;100.00;98063.43;106175;1253;61280;-76
2023/02/23 00:58:55;;;;;;;87.50;44.90;;;;;;;-1.61;100.00;98065.06;106127;1256;61304;-78
2023/02/23 01:01:22;;;;;;;76.50;39.90;;;;;;;-1.65;100.00;98064.06;106020;1254;61269;-77
2023/02/23 01:03:49;;;;;;;89.30;43.00;;;;;;;-1.71;100.00;98062.00;106062;1255;71561;-77
2023/02/23 01:06:15;;;;;;;72.60;39.60;;;;;;;-1.74;100.00;98062.93;106020;1254;61112;-78
2023/02/23 01:08:43;;;;;;;80.00;41.50;;;;;;;-1.79;100.00;98062.88;106103;1254;61254;-77
2023/02/23 01:11:13;;;;;;;91.10;38.60;;;;;;;-1.80;100.00;98064.75;106170;1254;74545;-76
2023/02/23 01:13:40;;;;;;;77.70;36.80;;;;;;;-1.83;100.00;98059.84;106169;1254;69761;-77
2023/02/23 01:16:12;;;;;;;79.50;37.80;;;;;;;-1.88;100.00;98057.83;106007;1254;71874;-77
2023/02/23 01:18:39;;;;;;;78.80;36.90;;;;;;;-1.88;100.00;98061.09;106016;1254;61421;-76
2023/02/23 01:21:20;;;;;;;80.90;37.50;;;;;;;-1.91;100.00;98054.73;106051;1254;61189;-78
2023/02/23 01:23:46;;;;;;;85.60;37.00;;;;;;;-1.91;100.00;98053.15;105995;1254;73988;-77
2023/02/23 01:26:15;;;;;;;80.80;40.40;;;;;;;-1.93;100.00;98054.38;106050;1259;61474;-76
2023/02/23 01:28:42;;;;;;;81.70;38.70;;;;;;;-1.93;100.00;98052.83;106043;1256;72544;-77
2023/02/23 01:31:08;;;;;;;86.80;37.00;;;;;;;-1.94;100.00;98051.73;106092;1254;61281;-78
2023/02/23 01:33:35;;;;;;;85.20;38.90;;;;;;;-1.95;100.00;98045.14;106080;1254;61174;-76
2023/02/23 01:36:01;;;;;;;76.80;34.80;;;;;;;-1.95;100.00;98045.34;106038;1258;61230;-77
2023/02/23 01:38:28;;;;;;;80.40;35.80;;;;;;;-1.94;100.00;98045.76;106110;1259;61285;-77
2023/02/23 01:40:54;;;;;;;75.90;35.50;;;;;;;-1.93;100.00;98047.91;106046;1254;61467;-78
2023/02/23 01:43:27;;;;;;;79.10;33.90;;;;;;;-1.93;100.00;98046.86;106058;1254;61282;-76
2023/02/23 01:45:57;;;;;;;65.60;35.20;;;;;;;-1.94;100.00;98043.05;106055;1254;61340;-76
2023/02/23 01:48:28;;;;;;;73.20;31.00;;;;;;;-1.93;100.00;98041.75;106083;1259;74564;-76
2023/02/23 01:51:12;;;;;;;73.80;33.20;;;;;;;-1.92;100.00;98036.44;105939;1253;71066;-77
2023/02/23 01:53:41;;;;;;;61.70;31.80;;;;;;;-1.93;100.00;98037.09;106122;1254;72463;-77
2023/02/23 01:56:13;;;;;;;72.70;32.00;;;;;;;-1.94;100.00;98034.08;106140;1254;61315;-76
2023/02/23 01:58:42;;;;;;;67.20;31.30;;;;;;;-1.97;100.00;98030.33;106052;1254;61240;-78
2023/02/23 02:01:09;;;;;;;;;;;;;;;-1.99;100.00;98027.09;106238;1254;73013;-77
2023/02/23 02:03:38;;;;;;;62.80;30.80;;;;;;;-2.03;100.00;98026.90;106011;1254;61266;-76
2023/02/23 02:06:08;;;;;;;79.90;34.50;;;;;;;-2.04;100.00;98026.80;106279;1254;72849;-77
2023/02/23 02:08:42;;;;;;;78.50;33.80;;;;;;;-2.04;100.00;98024.39;105984;1254;62189;-77
2023/02/23 02:11:24;;;;;;;74.80;34.90;;;;;;;-2.08;100.00;98018.11;106051;1254;61362;-77
2023/02/23 02:13:52;;;;;;;80.70;34.30;;;;;;;-2.08;100.00;98015.58;106028;1254;74493;-77
2023/02/23 02:16:41;;;;;;;84.80;37.70;;;;;;;-2.09;100.00;98013.83;106058;1257;71167;-77
2023/02/23 02:19:23;;;;;;;81.40;34.40;;;;;;;-2.12;100.00;98014.64;106024;1254;62848;-76
2023/02/23 02:22:13;;;;;;;75.00;35.30;;;;;;;-2.13;100.00;98011.54;105982;1254;62317;-77
2023/02/23 02:25:02;;;;;;;80.10;36.90;;;;;;;-2.12;100.00;98011.54;106041;1257;61238;-78
2023/02/23 02:27:47;;;;;;;75.40;35.70;;;;;;;-2.11;100.00;98009.86;106049;1254;74681;-77
2023/02/23 02:30:28;;;;;;;77.30;33.30;;;;;;;-2.11;100.00;98003.61;105994;1259;70971;-77
2023/02/23 02:33:31;;;;;;;59.80;30.80;;;;;;;-2.14;100.00;98006.54;106046;1254;72543;-76
2023/02/23 02:36:29;;;;;;;62.40;30.20;;;;;;;-2.16;100.00;98002.15;106029;1259;61214;-76
2023/02/23 02:39:22;;;;;;;63.20;31.30;;;;;;;-2.17;100.00;98002.81;106050;1254;61279;-78
2023/02/23 02:41:55;;;;;;;68.50;32.00;;;;;;;-2.14;100.00;97997.33;106035;1257;74550;-77
2023/02/23 02:44:37;;;;;;;76.00;35.20;;;;;;;-2.18;100.00;97998.56;106063;1258;69040;-77
2023/02/23 02:47:07;;;;;;;77.70;36.20;;;;;;;-2.18;100.00;98000.15;106044;1254;63936;-76
2023/02/23 02:49:58;;;;;;;65.70;31.90;;;;;;;-2.18;100.00;97999.63;106247;1254;61248;-79
2023/02/23 02:52:40;;;;;;;72.80;33.80;;;;;;;-2.19;100.00;97994.31;106124;1254;61292;-78
2023/02/23 02:55:15;;;;;;;87.00;34.30;;;;;;;-2.19;100.00;97993.54;106063;1254;74143;-76
2023/02/23 02:57:42;;;;;;;73.90;34.50;;;;;;;-2.20;100.00;97993.70;106098;1254;70473;-78
2023/02/23 04:17:40;;;;;;;73.30;33.50;;;;;;;-2.74;100.00;97994.05;105955;1257;61356;-76
2023/02/23 04:20:11;;;;;;;77.40;36.50;;;;;;;-2.73;100.00;97991.89;105926;1257;61156;-76
2023/02/23 04:22:37;;;;;;;76.40;33.60;;;;;;;-2.73;100.00;97994.53;105909;1257;69940;-76
2023/02/23 04:25:07;;;;;;;71.30;33.30;;;;;;;-2.72;100.00;97991.55;105975;1255;73277;-76
2023/02/23 04:27:35;;;;;;;71.10;35.80;;;;;;;-2.71;100.00;97992.48;105948;1262;61358;-76
2023/02/23 04:30:02;;;;;;;76.50;35.50;;;;;;;-2.69;100.00;97992.45;106038;1260;61324;-78
2023/02/23 04:32:29;;;;;;;91.80;40.00;;;;;;;-2.67;100.00;97992.33;105938;1257;74458;-76
2023/02/23 04:34:56;;;;;;;78.40;37.40;;;;;;;-2.65;100.00;97988.55;105939;1259;71264;-78
2023/02/23 04:37:22;;;;;;;77.10;34.80;;;;;;;-2.66;100.00;97984.99;105892;1257;61234;-77
2023/02/23 04:39:49;;;;;;;75.60;34.50;;;;;;;-2.66;100.00;97985.60;105903;1256;61266;-77
2023/02/23 04:42:16;;;;;;;81.20;38.60;;;;;;;-2.64;100.00;97982.81;105919;1259;61208;-78
2023/02/23 04:44:42;;;;;;;77.70;35.70;;;;;;;-2.64;100.00;97987.64;105949;1257;75690;-77
2023/02/23 04:47:09;;;;;;;82.00;36.20;;;;;;;-2.64;100.00;97984.86;105925;1259;70244;-77
2023/02/23 04:49:35;;;;;;;72.40;35.30;;;;;;;-2.64;100.00;97986.00;105922;1259;61234;-76
2023/02/23 04:52:01;;;;;;;68.40;32.90;;;;;;;-2.65;100.00;97987.13;105924;1259;61348;-76
2023/02/23 04:54:28;;;;;;;66.00;32.70;;;;;;;-2.69;100.00;97984.41;105950;1257;61279;-77
2023/02/23 04:56:55;;;;;;;79.20;33.70;;;;;;;-2.71;100.00;97977.95;105964;1255;74517;-77
2023/02/23 04:59:21;;;;;;;76.50;36.60;;;;;;;-2.73;100.00;97979.33;106068;1256;61348;-79
2023/02/23 05:01:47;;;;;;;72.80;35.90;;;;;;;-2.75;100.00;97980.82;106220;1256;61329;-78
2023/02/23 05:04:14;;;;;;;71.10;34.40;;;;;;;-2.75;100.00;97984.13;106172;1256;61310;-76
2023/02/23 05:06:41;;;;;;;76.80;34.50;;;;;;;-2.78;100.00;97979.99;106217;1256;61260;-78
2023/02/23 05:09:08;;;;;;;81.10;33.60;;;;;;;-2.82;100.00;97978.01;106255;1254;74511;-78
2023/02/23 05:11:34;;;;;;;75.40;34.30;;;;;;;-2.84;100.00;97976.94;106222;1256;69940;-78
2023/02/23 05:14:01;;;;;;;79.00;34.70;;;;;;;-2.85;100.00;97979.02;106239;1256;61244;-77
2023/02/23 05:16:27;;;;;;;78.00;33.90;;;;;;;-2.84;100.00;97980.81;106207;1257;61262;-78
2023/02/23 05:18:54;;;;;;;84.20;33.60;;;;;;;-2.83;100.00;97978.41;106221;1254;61644;-77
2023/02/23 05:21:20;;;;;;;64.70;34.10;;;;;;;-2.81;100.00;97981.81;106211;1255;61311;-76
2023/02/23 05:23:47;;;;;;;96.80;37.60;;;;;;;-2.79;100.00;97979.27;106488;1254;61339;-78
2023/02/23 05:26:13;;;;;;;76.60;36.20;;;;;;;-2.76;100.00;97978.45;106316;1254;61345;-77
2023/02/23 05:28:40;;;;;;;97.90;41.50;;;;;;;-2.72;100.00;97979.30;106216;1256;61289;-78
2023/02/23 05:31:07;;;;;;;101.50;41.20;;;;;;;-2.69;100.00;97981.11;106312;1254;61230;-77
2023/02/23 05:33:34;;;;;;;82.10;39.20;;;;;;;-2.68;100.00;97981.67;106340;1254;61322;-76
2023/02/23 05:36:03;;;;;;;69.40;34.50;;;;;;;-2.67;100.00;97982.95;106245;1254;69151;-76
2023/02/23 05:38:30;;;;;;;71.60;36.10;;;;;;;-2.66;100.00;97987.70;106252;1254;71498;-78
2023/02/23 05:40:56;;;;;;;76.30;38.60;;;;;;;-2.63;100.00;97983.42;106170;1254;61313;-78
2023/02/23 05:43:23;;;;;;;84.00;38.50;;;;;;;-2.62;100.00;97983.18;106196;1256;61229;-76
2023/02/23 05:45:49;;;;;;;83.30;41.10;;;;;;;-2.64;100.00;97985.88;106163;1256;61339;-78
2023/02/23 05:48:16;;;;;;;81.10;38.80;;;;;;;-2.64;100.00;97983.76;106211;1254;61288;-76
2023/02/23 05:50:42;;;;;;;80.30;37.40;;;;;;;-2.62;100.00;97985.63;106180;1255;61354;-77
2023/02/23 05:53:09;;;;;;;80.40;38.40;;;;;;;-2.62;100.00;97986.58;106199;1256;61291;-78
2023/02/23 05:55:36;;;;;;;82.90;38.80;;;;;;;-2.61;100.00;97987.44;106180;1254;61356;-78
2023/02/23 05:58:02;;;;;;;88.00;39.70;;;;;;;-2.62;100.00;97985.23;106159;1254;74396;-78
2023/02/23 06:00:29;;;;;;;80.50;40.10;;;;;;;-2.62;100.00;97989.47;106089;1256;61207;-78
2023/02/23 06:02:55;;;;;;;80.50;37.30;;;;;;;-2.60;100.00;97988.73;106390;1254;61272;-77
2023/02/23 06:05:22;;;;;;;76.70;37.50;;;;;;;-2.57;100.00;97993.52;106104;1260;61265;-78
2023/02/23 06:07:48;;;;;;;69.00;36.30;;;;;;;-2.57;100.00;97990.34;106059;1259;61428;-77
2023/02/23 06:10:15;;;;;;;86.30;39.40;;;;;;;-2.56;100.00;97993.02;106068;1258;61221;-76
2023/02/23 06:12:41;;;;;;;80.60;42.10;;;;;;;-2.50;100.00;97994.45;106084;1254;61270;-77
2023/02/23 06:15:08;;;;;;;87.60;39.30;;;;;;;-2.47;100.00;97993.14;106059;1259;61375;-78
2023/02/23 06:17:34;;;;;;;80.20;35.40;;;;;;;-2.42;100.00;97994.73;105952;1259;61535;-76
2023/02/23 06:27:23;;;;;;;60.10;29.70;;;;;;;-2.22;100.00;98001.20;108660;1254;71324;-75
2023/02/23 06:29:49;;;;;;;74.00;35.60;;;;;;;-2.13;100.00;98002.51;108171;1254;59381;-75
2023/02/23 06:32:16;;;;;;;80.80;38.00;;;;;;;-2.05;100.00;98000.86;108216;1258;59453;-75
2023/02/23 06:34:43;;;;;;;67.70;33.90;;;;;;;-1.94;100.00;98004.80;106890;1254;61263;-76
2023/02/23 06:37:10;;;;;;;80.00;37.20;;;;;;;-1.86;100.00;98004.46;106114;1254;73447;-77
2023/02/23 06:39:37;;;;;;;116.20;52.90;;;;;;;-1.77;100.00;98006.77;106112;1260;71035;-78
2023/02/23 06:42:04;;;;;;;119.00;52.20;;;;;;;-1.68;100.00;98004.09;106481;1253;72252;-77
2023/02/23 06:44:34;;;;;;;143.10;56.90;;;;;;;-1.60;100.00;98004.27;106114;1254;61361;-77
2023/02/23 06:47:02;;;;;;;157.50;59.20;;;;;;;-1.52;100.00;98009.43;106101;1254;61182;-77
2023/02/23 06:49:29;;;;;;;153.30;62.80;;;;;;;-1.46;100.00;98009.39;106047;1254;74650;-77
2023/02/23 06:51:55;;;;;;;151.20;61.60;;;;;;;-1.40;100.00;98011.48;106126;1254;69410;-78
2023/02/23 06:54:22;;;;;;;149.80;61.20;;;;;;;-1.33;100.00;98011.48;106091;1258;72513;-77
2023/02/23 06:56:49;;;;;;;129.10;58.50;;;;;;;-1.28;100.00;98011.17;106156;1259;61413;-77
2023/02/23 06:59:15;;;;;;;115.00;52.20;;;;;;;-1.22;100.00;98013.65;106118;1254;62912;-78
2023/02/23 07:01:43;;;;;;;108.20;49.50;;;;;;;-1.12;100.00;98010.46;106340;1254;61258;-77
2023/02/23 07:04:10;;;;;;;109.40;51.10;;;;;;;-1.05;100.00;98008.29;107657;1254;69851;-77
2023/02/23 07:06:36;;;;;;;106.30;48.70;;;;;;;-0.95;100.00;98010.42;108588;1254;72954;-77
2023/02/23 07:09:04;;;;;;;102.60;49.10;;;;;;;-0.86;100.00;98009.76;107402;1254;61305;-78
2023/02/23 07:11:31;;;;;;;87.40;48.10;;;;;;;-0.75;100.00;98007.03;106539;1255;61243;-76
2023/02/23 07:13:58;;;;;;;94.20;46.30;;;;;;;-0.62;100.00;98008.04;106894;1254;73759;-76
2023/02/23 07:16:26;;;;;;;91.50;47.90;;;;;;;-0.50;100.00;98011.32;107351;1254;69691;-79
2023/02/23 07:18:53;;;;;;;84.80;35.20;;;;;;;-0.48;100.00;98012.59;106803;1259;72575;-78
2023/02/23 07:21:20;;;;;;;180.20;89.30;;;;;;;-0.37;100.00;98013.58;106336;1256;61351;-78
2023/02/23 07:23:48;;;;;;;124.60;65.20;;;;;;;-0.25;100.00;98010.54;107865;1254;61279;-76
2023/02/23 07:26:15;;;;;;;103.30;54.40;;;;;;;-0.11;100.00;98009.09;107831;1254;73017;-76
2023/02/23 07:28:42;;;;;;;102.00;50.60;;;;;;;0.03;100.00;98008.15;106922;1259;69878;-76
2023/02/23 07:31:09;;;;;;;109.80;50.40;;;;;;;0.24;100.00;98007.03;106468;1261;71336;-76
2023/02/23 07:33:35;;;;;;;93.90;48.60;;;;;;;0.37;100.00;98011.84;107006;1257;61230;-76
2023/02/23 07:36:02;;;;;;;98.50;49.40;;;;;;;0.48;100.00;98007.95;107484;1254;61160;-76
2023/02/23 07:38:28;;;;;;;87.40;46.40;;;;;;;0.59;100.00;98005.61;106724;1255;72558;-77
2023/02/23 07:40:55;;;;;;;125.10;52.60;;;;;;;0.71;100.00;98007.83;106514;1259;61578;-76
2023/02/23 07:43:23;;;;;;;119.60;54.70;;;;;;;0.89;100.00;98006.45;107958;1257;61288;-78
2023/02/23 07:45:52;;;;;;;123.60;62.00;;;;;;;0.86;100.00;98005.65;109161;1254;59117;-77
2023/02/23 07:48:19;;;;;;;570.80;281.60;;;;;;;0.89;100.00;98003.96;109231;1254;58991;-77
2023/02/23 07:50:47;;;;;;;543.60;273.60;;;;;;;0.92;100.00;98006.68;109227;1254;75159;-78
2023/02/23 07:53:14;;;;;;;283.60;127.10;;;;;;;1.07;100.00;98003.84;109200;1253;71028;-77
2023/02/23 07:55:41;;;;;;;599.40;303.20;;;;;;;1.10;100.00;98004.21;109160;1259;71435;-77
2023/02/23 07:58:07;;;;;;;537.80;270.40;;;;;;;1.16;100.00;98002.31;106380;1270;61204;-78
2023/02/23 08:00:35;;;;;;;449.20;215.90;;;;;;;1.32;100.00;97999.70;107118;1259;61246;-76
2023/02/23 08:03:02;;;;;;;285.40;129.90;;;;;;;1.40;100.00;98003.36;106738;1254;75659;-76
2023/02/23 08:05:29;;;;;;;239.80;110.40;;;;;;;1.42;100.00;98003.26;107374;1259;69897;-76
2023/02/23 08:07:56;;;;;;;191.00;91.10;;;;;;;1.57;100.00;98003.13;107268;1254;72423;-76
2023/02/23 08:10:23;;;;;;;215.20;101.90;;;;;;;1.60;100.00;98005.89;106882;1254;61384;-76
2023/02/23 08:12:50;;;;;;;349.50;157.40;;;;;;;1.73;100.00;98005.34;107045;1255;62429;-78
2023/02/23 08:15:16;;;;;;;201.30;97.00;;;;;;;1.78;100.00;98009.89;107750;1259;73129;-76
2023/02/23 08:17:43;;;;;;;207.10;91.50;;;;;;;1.92;100.00;98006.55;107466;1258;70330;-77
2023/02/23 08:20:10;;;;;;;274.30;114.90;;;;;;;2.02;100.00;98002.85;106731;1259;71502;-78
2023/02/23 08:22:36;;;;;;;316.20;141.50;;;;;;;2.14;100.00;98003.30;106458;1259;61319;-77
2023/02/23 08:25:04;;;;;;;225.60;103.80;;;;;;;2.32;100.00;98003.40;106591;1255;61336;-78
2023/02/23 08:27:35;;;;;;;102.00;51.10;;;;;;;2.49;100.00;97998.24;107315;1257;75573;-78
2023/02/23 08:30:04;;;;;;;263.20;117.70;;;;;;;2.55;100.00;97996.11;106674;1259;68897;-78
2023/02/23 08:32:34;;;;;;;184.00;90.10;;;;;;;2.54;100.00;97995.05;106791;1259;72512;-76
2023/02/23 08:35:01;;;;;;;408.30;162.80;;;;;;;2.57;100.00;97995.05;107965;1258;61252;-78
2023/02/23 08:37:28;;;;;;;314.60;131.80;;;;;;;2.71;100.00;98001.42;107572;1254;61160;-78
2023/02/23 08:39:55;;;;;;;225.80;96.60;;;;;;;2.79;100.00;98002.95;106399;1254;73328;-77
2023/02/23 08:42:21;;;;;;;121.10;62.60;;;;;;;2.80;100.00;98004.70;106519;1254;71497;-77
2023/02/23 08:44:48;;;;;;;184.50;85.70;;;;;;;2.86;100.00;98004.20;106676;1256;61298;-76
2023/02/23 08:47:16;;;;;;;79.10;42.40;;;;;;;3.00;100.00;98004.23;107415;1254;61369;-76
2023/02/23 08:49:43;;;;;;;170.80;74.70;;;;;;;3.20;100.00;98002.39;106556;1258;61227;-76
2023/02/23 08:52:09;;;;;;;104.60;55.00;;;;;;;3.29;100.00;98000.19;106848;1259;74592;-78
2023/02/23 08:54:36;;;;;;;97.50;47.50;;;;;;;3.82;100.00;97997.25;106547;1258;61253;-76
2023/02/23 08:57:02;;;;;;;210.90;97.10;;;;;;;4.59;100.00;97993.30;107575;1254;61339;-76
2023/02/23 08:59:29;;;;;;;144.90;68.00;;;;;;;5.08;100.00;97993.64;106920;1256;61253;-78
2023/02/23 09:01:56;;;;;;;131.00;64.70;;;;;;;5.12;100.00;97997.26;106190;1260;61283;-77
2023/02/23 09:04:22;;;;;;;253.80;120.20;;;;;;;5.13;100.00;97995.19;107200;1254;74282;-78
2023/02/23 09:06:49;;;;;;;109.40;55.30;;;;;;;5.10;100.00;97993.67;107531;1254;71984;-77
2023/02/23 09:09:16;;;;;;;297.70;137.30;;;;;;;5.18;100.00;97997.95;106485;1260;71438;-76
2023/02/23 09:11:44;;;;;;;276.40;131.00;;;;;;;5.23;100.00;97990.71;108145;1254;61250;-76
2023/02/23 09:14:11;;;;;;;87.00;43.20;;;;;;;5.30;100.00;97989.95;107620;1260;61201;-76
2023/02/23 09:16:37;;;;;;;116.70;57.90;;;;;;;5.36;100.00;97987.77;106492;1256;75904;-76
2023/02/23 09:19:04;;;;;;;581.20;257.70;;;;;;;5.25;98.69;97988.70;106823;1254;70873;-78
2023/02/23 09:21:33;;;;;;;490.40;241.80;;;;;;;5.40;100.00;97988.16;106455;1254;71643;-77
2023/02/23 09:24:00;;;;;;;129.60;64.60;;;;;;;5.51;99.91;97981.55;108052;1254;61261;-77
2023/02/23 09:26:28;;;;;;;447.60;191.30;;;;;;;5.60;99.60;97983.80;108097;1254;61240;-76
2023/02/23 09:28:55;;;;;;;115.70;60.00;;;;;;;5.62;98.51;97979.39;106703;1259;75594;-77
2023/02/23 09:31:22;;;;;;;61.50;33.70;;;;;;;5.68;98.12;97981.45;106366;1261;71017;-78
2023/02/23 09:33:49;;;;;;;76.80;40.80;;;;;;;5.80;99.18;97983.55;107555;1254;73608;-78
2023/02/23 09:36:18;;;;;;;58.90;34.60;;;;;;;5.86;98.98;97978.83;107498;1255;61259;-78
2023/02/23 09:38:46;;;;;;;46.90;25.40;;;;;;;6.01;99.89;97973.56;108297;1255;60206;-76
2023/02/23 09:41:18;;;;;;;55.10;30.10;;;;;;;5.92;96.51;97979.52;106400;1254;75421;-79
2023/02/23 09:43:49;;;;;;;54.70;28.60;;;;;;;5.99;97.46;97974.67;106642;1254;70977;-76
2023/02/23 09:46:43;;;;;;;53.10;29.40;;;;;;;6.15;99.61;97976.36;107369;1255;72051;-78
2023/02/23 09:49:12;;;;;;;53.10;28.70;;;;;;;6.34;99.95;97971.61;106271;1260;61199;-78
2023/02/23 09:51:40;;;;;;;63.20;28.80;;;;;;;6.46;99.46;97972.33;106824;1254;61145;-78
2023/02/23 09:54:09;;;;;;;76.60;35.40;;;;;;;6.59;99.89;97964.65;108465;1255;74554;-77
2023/02/23 09:56:38;;;;;;;54.90;29.60;;;;;;;6.71;99.92;97968.04;108321;1254;71592;-77
2023/02/23 09:59:05;;;;;;;52.70;29.20;;;;;;;6.82;99.45;97968.20;108472;1255;71478;-78
2023/02/23 10:01:47;;;;;;;45.30;23.40;;;;;;;6.95;98.08;97966.64;107152;1255;59844;-77
2023/02/23 10:04:31;;;;;;;46.20;26.80;;;;;;;7.09;97.44;97964.05;106667;1258;61572;-78
2023/02/23 10:07:03;;;;;;;56.70;29.60;;;;;;;7.23;98.57;97964.03;107641;1254;73151;-76
2023/02/23 10:10:08;;;;;;;43.20;25.80;;;;;;;7.34;95.86;97967.45;106148;1260;70810;-78
2023/02/23 10:12:56;;;;;;;86.40;35.40;;;;;;;7.57;98.30;97963.91;107204;1257;71008;-76
2023/02/23 10:16:07;;;;;;;155.60;65.60;;;;;;;7.66;97.66;97956.52;106812;1260;61179;-76
2023/02/23 10:19:26;;;;;;;185.20;78.60;;;;;;;7.78;98.74;97955.61;106645;1264;61144;-76
2023/02/23 10:21:57;;;;;;;83.40;37.80;;;;;;;7.96;98.15;97947.70;105394;1263;73143;-78
2023/02/23 10:24:28;;;;;;;53.30;28.80;;;;;;;8.10;97.28;97944.03;107872;1254;69805;-78
2023/02/23 10:27:06;;;;;;;50.50;24.20;;;;;;;8.15;94.55;97943.34;107599;1254;71659;-77
2023/02/23 10:29:47;;;;;;;34.60;20.30;;;;;;;8.19;93.60;97941.79;106654;1260;61340;-79
2023/02/23 10:32:35;;;;;;;34.80;20.00;;;;;;;8.27;92.49;97944.73;107482;1254;61131;-77
2023/02/23 10:35:08;;;;;;;41.30;22.10;;;;;;;8.34;92.22;97941.13;106411;1259;74577;-76
2023/02/23 10:37:36;;;;;;;46.90;19.30;;;;;;;8.46;94.25;97938.25;107301;1260;69207;-78
2023/02/23 10:40:04;;;;;;;41.70;19.60;;;;;;;8.61;94.58;97932.39;106070;1260;70665;-79
2023/02/23 10:42:31;;;;;;;47.10;24.00;;;;;;;8.70;93.59;97930.40;106874;1254;61260;-78
2023/02/23 10:44:58;;;;;;;38.60;21.30;;;;;;;8.74;93.84;97925.91;106949;1254;61336;-79
2023/02/23 10:47:30;;;;;;;36.90;18.70;;;;;;;8.85;93.60;97928.56;108166;1254;74266;-78
2023/02/23 10:49:56;;;;;;;37.20;20.60;;;;;;;8.98;92.99;97923.91;106133;1255;72194;-76
2023/02/23 10:52:40;;;;;;;30.20;17.90;;;;;;;9.01;92.68;97922.17;106621;1254;72818;-77
2023/02/23 10:55:08;;;;;;;36.00;16.90;;;;;;;9.12;92.99;97916.59;106894;1254;61155;-77
2023/02/23 10:57:37;;;;;;;31.50;17.30;;;;;;;9.23;92.24;97916.36;106901;1254;62336;-78
2023/02/23 11:00:15;;;;;;;32.10;18.90;;;;;;;9.33;91.20;97913.21;106327;1254;75196;-78
2023/02/23 11:02:46;;;;;;;38.00;19.50;;;;;;;9.35;91.57;97906.34;107089;1254;71150;-78
2023/02/23 11:05:35;;;;;;;36.00;17.30;;;;;;;9.36;87.89;97907.31;108242;1254;73088;-78
2023/02/23 11:08:08;;;;;;;39.60;21.40;;;;;;;9.42;85.46;97907.13;107601;1254;61256;-77
2023/02/23 11:10:35;;;;;;;24.90;15.10;;;;;;;9.41;83.32;97901.50;106132;1254;61234;-77
2023/02/23 11:13:02;;;;;;;27.00;16.20;;;;;;;9.50;84.26;97898.98;107025;1254;74472;-79
2023/02/23 11:15:31;;;;;;;27.90;14.10;;;;;;;9.58;83.90;97896.25;107347;1254;71109;-78
2023/02/23 11:18:04;;;;;;;28.90;18.20;;;;;;;9.77;85.42;97890.45;106597;1255;73449;-79
2023/02/23 11:20:37;;;;;;;34.40;21.60;;;;;;;9.92;87.14;97885.35;106588;1254;61320;-77
2023/02/23 11:23:19;;;;;;;30.00;14.80;;;;;;;10.00;87.54;97883.85;106360;1254;61342;-78
2023/02/23 11:25:46;;;;;;;40.80;14.80;;;;;;;10.09;88.06;97882.23;106863;1254;73627;-77
2023/02/23 11:28:26;;;;;;;22.70;11.90;;;;;;;10.21;87.37;97876.69;106369;1259;69871;-78
2023/02/23 11:30:53;;;;;;;23.60;12.70;;;;;;;10.30;86.72;97871.66;106319;1258;72401;-79
2023/02/23 11:33:28;;;;;;;28.00;14.00;;;;;;;10.40;86.64;97868.14;107053;1254;61228;-76
2023/02/23 11:35:58;;;;;;;28.00;11.80;;;;;;;10.53;86.50;97865.27;108131;1254;60246;-77
2023/02/23 11:38:27;;;;;;;25.60;13.40;;;;;;;10.67;87.82;97866.02;108490;1254;73600;-78
2023/02/23 11:41:03;;;;;;;19.80;10.30;;;;;;;10.86;86.67;97863.15;106377;1254;70093;-76
2023/02/23 11:43:30;;;;;;;27.40;14.90;;;;;;;11.03;85.48;97856.45;106989;1254;71635;-78
2023/02/23 11:45:58;;;;;;;22.60;12.30;;;;;;;11.07;85.61;97854.29;107120;1254;61138;-76
2023/02/23 11:48:31;;;;;;;20.50;11.90;;;;;;;11.22;84.11;97852.77;107171;1254;61295;-78
2023/02/23 11:50:58;;;;;;;25.10;14.30;;;;;;;11.28;83.43;97852.38;106331;1256;75987;-77
2023/02/23 11:53:30;;;;;;;24.50;12.60;;;;;;;11.34;82.90;97851.71;107666;1254;61292;-77
2023/02/23 11:56:01;;;;;;;21.80;12.80;;;;;;;11.43;82.07;97851.41;107387;1254;71850;-78
2023/02/23 11:58:48;;;;;;;17.30;10.00;;;;;;;11.45;82.00;97848.99;106662;1256;59704;-77
2023/02/23 12:01:17;;;;;;;16.90;10.00;;;;;;;11.55;79.99;97850.13;106250;1254;61238;-76
2023/02/23 12:04:02;;;;;;;21.20;10.80;;;;;;;11.51;79.66;97848.90;106737;1256;74159;-77
2023/02/23 12:06:35;;;;;;;25.90;13.40;;;;;;;11.50;80.59;97843.77;109145;1253;71347;-78
2023/02/23 12:09:22;;;;;;;39.70;19.80;;;;;;;11.56;81.40;97842.51;109117;1254;72556;-78
2023/02/23 12:11:56;;;;;;;36.80;16.80;;;;;;;11.65;80.58;97840.33;109195;1254;59233;-74
2023/02/23 12:14:31;;;;;;;25.80;14.10;;;;;;;11.68;79.36;97834.02;109060;1254;60194;-77
2023/02/23 12:17:05;;;;;;;44.10;30.20;;;;;;;11.66;80.06;97836.41;109143;1254;74570;-77
2023/02/23 12:19:36;;;;;;;73.10;33.50;;;;;;;11.68;80.35;97834.16;107755;1254;71515;-78
2023/02/23 12:22:03;;;;;;;59.50;23.20;;;;;;;11.71;80.12;97835.54;106296;1263;71436;-79
2023/02/23 12:24:44;;;;;;;44.80;21.40;;;;;;;11.72;80.05;97834.66;107060;1254;61067;-77
2023/02/23 12:27:44;;;;;;;35.40;17.00;;;;;;;11.70;80.32;97830.33;107559;1254;59284;-77
2023/02/23 12:30:23;;;;;;;31.80;15.70;;;;;;;11.73;80.77;97832.13;106202;1254;75642;-77
2023/02/23 12:33:08;;;;;;;;;;;;;;;11.73;80.90;97827.85;106703;1254;71215;-78
2023/02/23 12:35:53;;;;;;;63.80;47.10;;;;;;;11.73;80.35;97826.72;106707;1254;72522;-77
2023/02/23 12:38:26;;;;;;;32.70;16.30;;;;;;;11.75;80.44;97826.80;106297;1254;62447;-77
2023/02/23 12:40:57;;;;;;;38.40;20.60;;;;;;;11.75;80.07;97822.61;107062;1254;61103;-77
2023/02/23 12:43:37;;;;;;;42.60;20.90;;;;;;;11.78;80.71;97821.42;106418;1257;74075;-76
2023/02/23 12:46:11;;;;;;;41.50;21.20;;;;;;;11.81;79.77;97820.17;107067;1254;69902;-76